地図

経路データ

SID SEASON NUMBER BASIN SUBBASIN NAME ISO_TIME NATURE LAT LON WMO_WIND WMO_PRES WMO_AGENCY TRACK_TYPE DIST2LAND LANDFALL IFLAG USA_AGENCY USA_ATCF_ID USA_LAT USA_LON USA_RECORD USA_STATUS USA_WIND USA_PRES USA_SSHS USA_R34_NE USA_R34_SE USA_R34_SW USA_R34_NW USA_R50_NE USA_R50_SE USA_R50_SW USA_R50_NW USA_R64_NE USA_R64_SE USA_R64_SW USA_R64_NW USA_POCI USA_ROCI USA_RMW USA_EYE TOKYO_LAT TOKYO_LON TOKYO_GRADE TOKYO_WIND TOKYO_PRES TOKYO_R50_DIR TOKYO_R50_LONG TOKYO_R50_SHORT TOKYO_R30_DIR TOKYO_R30_LONG TOKYO_R30_SHORT TOKYO_LAND CMA_LAT CMA_LON CMA_CAT CMA_WIND CMA_PRES HKO_LAT HKO_LON HKO_CAT HKO_WIND HKO_PRES NEWDELHI_LAT NEWDELHI_LON NEWDELHI_GRADE NEWDELHI_WIND NEWDELHI_PRES NEWDELHI_CI NEWDELHI_DP NEWDELHI_POCI REUNION_LAT REUNION_LON REUNION_TYPE REUNION_WIND REUNION_PRES REUNION_TNUM REUNION_CI REUNION_RMW REUNION_R34_NE REUNION_R34_SE REUNION_R34_SW REUNION_R34_NW REUNION_R50_NE REUNION_R50_SE REUNION_R50_SW REUNION_R50_NW REUNION_R64_NE REUNION_R64_SE REUNION_R64_SW REUNION_R64_NW BOM_LAT BOM_LON BOM_TYPE BOM_WIND BOM_PRES BOM_TNUM BOM_CI BOM_RMW BOM_R34_NE BOM_R34_SE BOM_R34_SW BOM_R34_NW BOM_R50_NE BOM_R50_SE BOM_R50_SW BOM_R50_NW BOM_R64_NE BOM_R64_SE BOM_R64_SW BOM_R64_NW BOM_ROCI BOM_POCI BOM_EYE BOM_POS_METHOD BOM_PRES_METHOD NADI_LAT NADI_LON NADI_CAT NADI_WIND NADI_PRES WELLINGTON_LAT WELLINGTON_LON WELLINGTON_WIND WELLINGTON_PRES DS824_LAT DS824_LON DS824_STAGE DS824_WIND DS824_PRES TD9636_LAT TD9636_LON TD9636_STAGE TD9636_WIND TD9636_PRES TD9635_LAT TD9635_LON TD9635_WIND TD9635_PRES TD9635_ROCI NEUMANN_LAT NEUMANN_LON NEUMANN_CLASS NEUMANN_WIND NEUMANN_PRES MLC_LAT MLC_LON MLC_CLASS MLC_WIND MLC_PRES USA_GUST BOM_GUST BOM_GUST_PER REUNION_GUST REUNION_GUST_PER USA_SEAHGT USA_SEARAD_NE USA_SEARAD_SE USA_SEARAD_SW USA_SEARAD_NW STORM_SPEED STORM_DIR
1998279S10092 1999 79 SI WA ZELIA 1998-10-06 00:00:00 TS -10.2000 92.0000 main 1220 1220 O___________O_ jtwc_sh SH031999 -10.2000 92.0000 20 -1 -10.2000 92.0000 TC 20 4 261
1998279S10092 1999 79 SI WA ZELIA 1998-10-06 03:00:00 TS -10.2300 91.8025 main 1234 1234 P___________P_ SH031999 -10.2300 91.8025 22 -1 -10.2300 91.8025 TC 22 4 256
1998279S10092 1999 79 SI WA ZELIA 1998-10-06 06:00:00 TS -10.3000 91.6000 main 1257 1257 O___________O_ jtwc_sh SH031999 -10.3000 91.6000 25 -1 -10.3000 91.6000 TC 25 4 242
1998279S10092 1999 79 SI WA ZELIA 1998-10-06 09:00:00 TS -10.4350 91.4051 main 1279 1279 P___________P_ SH031999 -10.4350 91.4051 25 -1 -10.4350 91.4051 TC 25 4 224
1998279S10092 1999 79 SI WA ZELIA 1998-10-06 12:00:00 TS -10.6000 91.3000 main 1303 1303 O___________O_ jtwc_sh SH031999 -10.6000 91.3000 25 -1 -10.6000 91.3000 TC 25 3 193
1998279S10092 1999 79 SI WA ZELIA 1998-10-06 15:00:00 TS -10.7499 91.3250 main 1312 1312 P___________P_ SH031999 -10.7499 91.3250 27 -1 -10.7499 91.3250 TC 27 4 147
1998279S10092 1999 79 SI WA ZELIA 1998-10-06 18:00:00 TS -10.9000 91.5000 main 1315 1304 O___________O_ jtwc_sh SH031999 -10.9000 91.5000 30 -1 -10.9000 91.5000 TC 30 6 121
1998279S10092 1999 79 SI WA ZELIA 1998-10-06 21:00:00 TS -11.0426 91.8200 main 1304 1293 P___________P_ SH031999 -11.0426 91.8200 32 -1 -11.0426 91.8200 TC 32 8 114
1998279S10092 1999 79 SI WA ZELIA 1998-10-07 00:00:00 TS -11.2000 92.2000 main 1296 1290 O___________O_ jtwc_sh SH031999 -11.2000 92.2000 35 0 -11.2000 92.2000 TC 35 8 117
1998279S10092 1999 79 SI WA ZELIA 1998-10-07 03:00:00 TS -11.3849 92.5001 main 1296 1288 P___________P_ SH031999 -11.3849 92.5001 35 0 -11.3849 92.5001 TC 35 7 121
1998279S10092 1999 79 SI WA ZELIA 1998-10-07 06:00:00 TS -11.5667 92.8222 25 1002 bom main 1297 1286 O_____O_____O_ jtwc_sh SH031999 -11.6000 92.8000 35 0 -11.3000 93.0000 20 25 1002 1.50000 161 1012 3 5 -11.6000 92.8000 TC 35 9 123
1998279S10092 1999 79 SI WA ZELIA 1998-10-07 09:00:00 TS -11.8480 93.2340 25 1000 bom main 1294 1294 P_____O_____P_ SH031999 -11.8350 93.1426 35 0 -11.9000 93.6000 20 25 1000 2.00000 161 1012 3 5 -11.8350 93.1426 TC 35 10 130
1998279S10092 1999 79 SI WA ZELIA 1998-10-07 12:00:00 TS -12.1818 93.5818 30 999 bom main 1313 1313 O_____O_____O_ jtwc_sh SH031999 -12.1000 93.5000 35 0 -12.4000 93.8000 20 30 999 2.50000 215 1012 3 5 -12.1000 93.5000 TC 35 10 137
1998279S10092 1999 79 SI WA ZELIA 1998-10-07 15:00:00 TS -12.5517 93.9051 30 998 bom main 1334 1327 P_____O_____P_ SH031999 -12.3775 93.8576 35 0 -12.9000 94.0000 20 30 998 2.50000 215 1012 3 5 -12.3775 93.8576 TC 35 9 142
1998279S10092 1999 79 SI WA ZELIA 1998-10-07 18:00:00 TS -12.8667 94.1333 30 996 bom main 1344 1336 O_____O_____O_ jtwc_sh SH031999 -12.7000 94.2000 35 0 -13.2000 94.0000 20 30 996 2.50000 215 1012 3 5 -12.7000 94.2000 TC 35 8 146
1998279S10092 1999 79 SI WA ZELIA 1998-10-07 21:00:00 TS -13.2383 94.3866 35 995 bom main 1347 1347 P_____O_____P_ SH031999 -13.1075 94.5299 35 0 -13.5000 94.1000 30 35 995 3.00000 215 1012 3 5 -13.1075 94.5299 TC 35 9 149
1998279S10092 1999 79 SI WA ZELIA 1998-10-08 00:00:00 TS -13.6333 94.6000 35 994 bom main 1367 1367 O_____O_____O_ jtwc_sh SH031999 -13.5000 94.8000 35 0 -13.9000 94.2000 30 35 994 3.00000 215 1012 3 5 -13.5000 94.8000 TC 35 8 150
1998279S10092 1999 79 SI WA ZELIA 1998-10-08 03:00:00 TS -13.9150 94.7868 35 993 bom main 1377 1377 P_____O_____P_ SH031999 -13.7724 94.9801 35 0 -14.2000 94.4000 30 35 993 3.00000 215 1012 3 5 -13.7724 94.9801 TC 35 6 147
1998279S10092 1999 79 SI WA ZELIA 1998-10-08 06:00:00 TS -14.1333 94.9333 40 992 bom main 1387 1387 O_____O_____O_ jtwc_sh SH031999 -14.0000 95.1000 35 0 -14.4000 94.6000 30 40 992 3.00000 215 1012 3 5 -14.0000 95.1000 TC 35 5 150
1998279S10092 1999 79 SI WA ZELIA 1998-10-08 09:00:00 TS -14.3866 95.0667 40 990 bom main 1393 1391 P_____O_____P_ SH031999 -14.2800 95.2000 40 0 -14.6000 94.8000 30 40 990 3.00000 215 1012 3 5 -14.2800 95.2000 TC 40 5 149
1998279S10092 1999 79 SI WA ZELIA 1998-10-08 12:00:00 TS -14.5667 95.2000 40 990 bom main 1398 1390 O_____O_____O_ jtwc_sh SH031999 -14.5000 95.3000 45 0 -14.7000 95.0000 30 40 990 3.00000 161 1012 3 5 -14.5000 95.3000 TC 45 4 139
1998279S10092 1999 79 SI WA ZELIA 1998-10-08 15:00:00 TS -14.6633 95.3184 40 990 bom main 1397 1380 P_____O_____P_ SH031999 -14.5950 95.4275 45 0 -14.8000 95.1000 30 40 990 3.00000 161 1012 3 5 -14.5950 95.4275 TC 45 3 117
1998279S10092 1999 79 SI WA ZELIA 1998-10-08 18:00:00 TS -14.7000 95.4667 40 992 bom main 1380 1363 O_____O_____O_ jtwc_sh SH031999 -14.6000 95.6000 45 0 -14.9000 95.2000 30 40 992 3.00000 107 1012 3 5 -14.6000 95.6000 TC 45 3 92
1998279S10092 1999 79 SI WA ZELIA 1998-10-08 21:00:00 TS -14.6767 95.6717 40 992 bom main 1363 1339 P_____O_____P_ SH031999 -14.5651 95.8576 45 0 -14.9000 95.3000 30 40 992 3.00000 107 1012 3 5 -14.5651 95.8576 TC 45 4 76
1998279S10092 1999 79 SI WA ZELIA 1998-10-09 00:00:00 TS -14.6000 95.8667 35 994 bom main 1339 1324 O_____O_____O_ jtwc_sh SH031999 -14.5000 96.1000 45 0 -14.8000 95.4000 30 35 994 3.00000 107 1012 3 5 -14.5000 96.1000 TC 45 3 64
1998279S10092 1999 79 SI WA ZELIA 1998-10-09 03:00:00 TS -14.5283 95.9817 30 996 bom main 1324 1316 P_____O_____P_ SH031999 -14.4425 96.2225 40 0 -14.7000 95.5000 20 30 996 2.50000 107 1012 3 5 -14.4425 96.2225 TC 40 2 55
1998279S10092 1999 79 SI WA ZELIA 1998-10-09 06:00:00 TS -14.4667 96.0667 30 998 bom main 1316 1300 O_____O_____O_ jtwc_sh SH031999 -14.4000 96.3000 35 0 -14.6000 95.6000 20 30 998 2.50000 107 1012 3 5 -14.4000 96.3000 TC 35 2 66
1998279S10092 1999 79 SI WA ZELIA 1998-10-09 09:00:00 TS -14.4333 96.2000 30 999 bom main 1300 1292 P_____O_____P_ SH031999 -14.4000 96.4000 35 0 -14.5000 95.8000 20 30 999 2.50000 107 1012 3 5 -14.4000 96.4000 TC 35 3 83
1998279S10092 1999 79 SI WA ZELIA 1998-10-09 12:00:00 TS -14.4333 96.3333 25 1000 bom main 1292 1276 O_____O_____O_ jtwc_sh SH031999 -14.4000 96.5000 35 0 -14.5000 96.0000 20 25 1000 2.00000 107 1012 3 5 -14.4000 96.5000 TC 35 3 85
1998279S10092 1999 79 SI WA ZELIA 1998-10-09 15:00:00 TS -14.4050 96.5100 25 1001 bom main 1276 1268 P_____O_____P_ SH031999 -14.3575 96.6150 35 0 -14.5000 96.3000 20 25 1001 2.00000 107 1012 3 5 -14.3575 96.6150 TC 35 3 77
1998279S10092 1999 79 SI WA ZELIA 1998-10-09 18:00:00 TS -14.3667 96.6333 25 1001 bom main 1268 1252 O_____O_____O_ jtwc_sh SH031999 -14.3000 96.7000 35 0 -14.5000 96.5000 20 25 1001 2.00000 107 1012 3 5 -14.3000 96.7000 TC 35 2 66
1998279S10092 1999 79 SI WA ZELIA 1998-10-09 21:00:00 TS -14.3383 96.6634 25 1002 bom main 1252 1252 P_____O_____P_ SH031999 -14.2575 96.7450 35 0 -14.5000 96.5000 20 25 1002 2.00000 107 1012 3 5 -14.2575 96.7450 TC 35 1 317
1998279S10092 1999 79 SI WA ZELIA 1998-10-10 00:00:00 TS -14.2667 96.5333 25 1002 bom main 1268 1261 O_____O_____O_ jtwc_sh SH031999 -14.2000 96.7000 35 0 -14.4000 96.2000 20 25 1002 1.50000 107 1012 3 5 -14.2000 96.7000 TC 35 4 302
1998279S10092 1999 79 SI WA ZELIA 1998-10-10 03:00:00 TS -14.1436 96.3364 25 1003 bom main 1271 1271 P_____O_____P_ SH031999 -14.1225 96.5375 35 0 -14.2000 95.8000 20 25 1003 1.50000 107 1012 3 5 -14.1225 96.5375 TC 35 5 302
1998279S10092 1999 79 SI WA ZELIA 1998-10-10 06:00:00 TS -14.0000 96.1000 20 1004 bom main 1280 1280 O_____O_____O_ jtwc_sh SH031999 -14.0000 96.3000 35 0 -14.0000 95.5000 20 20 1004 1.00000 107 1012 3 5 -14.0000 96.3000 TC 35 5 306
1998279S10092 1999 79 SI WA ZELIA 1998-10-10 09:00:00 TS -13.8340 95.8999 20 1005 bom main 1284 1277 P_____O_____P_ SH031999 -13.8175 96.0499 35 0 -13.9000 95.3000 20 20 1005 1.00000 107 1012 3 5 -13.8175 96.0499 TC 35 5 324
1998279S10092 1999 79 SI WA ZELIA 1998-10-10 12:00:00 TS -13.6000 95.8000 main 1280 O___________O_ jtwc_sh SH031999 -13.6000 95.8000 35 0 -13.6000 95.8000 TC 35 5 337

IBTrACS Databaseについて

本データベースは、米国NOAAが公開する1842年以降の世界の熱帯低気圧のベストトラックデータアーカイブInternational Best Track Archive for Climate Stewardship (IBTrACS)を、ウェブで閲覧しやすい形式に変換したものです。

最終更新日:2021-10-08